Hong Xiang 2 — BYBA — position and weather

sailwx.info

Track history (hours):
 
Tides and Currents Weather Stations Pressure Air Temp Water Temp Dewpoint Dewpoint Depression Visibility Wind Speed Wind Dir Waves Ship Positions

Hong Xiang 2

Last reported at 2015-Feb-26 22:25 UTC. Time now 2015-Feb-27 21:09 UTC.
Position N 22°09' E 114°15'.

Length 96 m; draft 5 m.

Type: Ship (hazmat cat A). MMSI: 413413000.

Date/timePositionNaut miles runAvg speedWind from/ knotsBaromVisibWave heightAir tempDewpointWater temp
2015-Feb-26 22:25N 22°09' E 114°15'14110.9
2015-Feb-26 09:31N 23°00' E 116°36'1010.0
2015-Feb-26 08:33N 23°07' E 116°44'9 8.9
2015-Feb-26 07:32N 23°14' E 116°50'10 9.8
2015-Feb-26 06:33N 23°21' E 116°42'10 9.8
2015-Feb-26 05:33N 23°25' E 116°33'5 0.2
2015-Feb-25 05:28N 23°27' E 116°28'6 6.7
2015-Feb-25 04:33N 23°24' E 116°33'7 7.4
2015-Feb-25 03:33N 23°21' E 116°41'8 8.1
2015-Feb-25 02:33N 23°16' E 116°48'8 7.7
2015-Feb-25 01:33N 23°09' E 116°46'136 9.6
2015-Feb-24 11:23N 22°10' E 114°33'12 9.7
2015-Feb-24 10:10N 22°06' E 114°21'61 9.3
2015-Feb-24 03:33N 21°51' E 113°17'5 4.9
2015-Feb-24 02:33N 21°55' E 113°13'0 0.0
2015-Feb-24 01:30N 21°55' E 113°13'0 0.0
2015-Feb-24 00:30N 21°55' E 113°13'0 0.0
2015-Feb-23 23:30N 21°55' E 113°13'0 0.0
2015-Feb-23 22:30N 21°55' E 113°13'0 0.0
2015-Feb-23 21:24N 21°55' E 113°13'0 0.0
2015-Feb-23 20:30N 21°55' E 113°13'0 0.0
2015-Feb-23 19:18N 21°55' E 113°13'0 0.0
2015-Feb-23 18:30N 21°55' E 113°13'0 0.0
2015-Feb-23 17:30N 21°55' E 113°13'0 0.0
2015-Feb-23 16:30N 21°55' E 113°13'0 0.0
2015-Feb-23 15:30N 21°55' E 113°13'0 0.0
2015-Feb-23 14:24N 21°55' E 113°13'0 0.0
2015-Feb-23 13:24N 21°55' E 113°13'0 0.0
2015-Feb-23 12:30N 21°55' E 113°13'0 0.0
2015-Feb-23 11:30N 21°55' E 113°13'0 0.0
2015-Feb-23 10:30N 21°55' E 113°13'0 0.0
2015-Feb-23 09:24N 21°55' E 113°13'0 0.0
2015-Feb-23 08:30N 21°55' E 113°13'0 0.0
2015-Feb-23 07:30N 21°55' E 113°13'0 0.0
2015-Feb-23 06:30N 21°55' E 113°13'2 2.1
2015-Feb-23 05:33N 21°53' E 113°12'1 0.6
2015-Feb-23 04:32N 21°54' E 113°11'0 0.0
2015-Feb-23 03:20N 21°53' E 113°11'0 0.0
2015-Feb-23 02:26N 21°53' E 113°11'0 0.0
2015-Feb-23 01:32N 21°53' E 113°11'0 0.0
2015-Feb-23 00:32N 21°53' E 113°11'0 0.0
2015-Feb-22 23:32N 21°53' E 113°11'0 0.1
2015-Feb-22 22:32N 21°53' E 113°11'0 0.0
2015-Feb-22 21:26N 21°53' E 113°11'0 0.0
2015-Feb-22 20:32N 21°53' E 113°11'0 0.0
2015-Feb-22 19:20N 21°53' E 113°11'0 0.0
2015-Feb-22 17:32N 21°53' E 113°11'0 0.0
2015-Feb-22 16:32N 21°53' E 113°11'0 0.1
2015-Feb-22 15:26N 21°54' E 113°11'0 0.1
2015-Feb-22 14:32N 21°54' E 113°11'0 0.0
2015-Feb-22 13:32N 21°54' E 113°11'0 0.0
2015-Feb-22 12:26N 21°53' E 113°11'0 0.0
2015-Feb-22 11:26N 21°53' E 113°11'0 0.0
2015-Feb-22 10:32N 21°53' E 113°11'0 0.1
2015-Feb-22 09:32N 21°53' E 113°11'0 0.1
2015-Feb-22 08:26N 21°53' E 113°11'0 0.1
2015-Feb-22 07:26N 21°53' E 113°11'0 0.0
2015-Feb-22 06:32N 21°53' E 113°11'0 0.1
2015-Feb-22 05:26N 21°53' E 113°11'0 0.0
2015-Feb-22 04:32N 21°53' E 113°11'0 0.1
2015-Feb-22 03:20N 21°54' E 113°11'0 0.0
2015-Feb-22 02:32N 21°54' E 113°11'0 0.0
2015-Feb-22 01:20N 21°53' E 113°11'0 0.0
2015-Feb-22 00:32N 21°53' E 113°11'0 0.0
2015-Feb-21 23:20N 21°53' E 113°11'0 0.1
2015-Feb-21 22:32N 21°53' E 113°11'0 0.1
2015-Feb-21 21:26N 21°53' E 113°11'0 0.0
2015-Feb-21 20:26N 21°53' E 113°11'0 0.0
2015-Feb-21 19:32N 21°53' E 113°11'0 0.0
2015-Feb-21 18:32N 21°53' E 113°11'0 0.0
2015-Feb-21 17:26N 21°53' E 113°11'0 0.0
2015-Feb-21 16:32N 21°53' E 113°11'0 0.1
2015-Feb-21 15:26N 21°53' E 113°11'0 0.1
2015-Feb-21 14:32N 21°53' E 113°11'0 0.0
2015-Feb-21 13:26N 21°54' E 113°11'0 0.0
2015-Feb-21 12:20N 21°53' E 113°11'0 0.0
2015-Feb-21 11:20N 21°53' E 113°11'0 0.0
2015-Feb-21 10:26N 21°53' E 113°11'0 0.1
2015-Feb-21 09:32N 21°53' E 113°11'0 0.1
2015-Feb-21 08:32N 21°53' E 113°11'0 0.1
2015-Feb-21 07:32N 21°53' E 113°11'0 0.0
2015-Feb-21 06:32N 21°53' E 113°11'0 0.0
2015-Feb-21 05:32N 21°53' E 113°11'0 0.1
2015-Feb-21 04:32N 21°53' E 113°11'0 0.1
2015-Feb-21 03:32N 21°54' E 113°11'0 0.1
2015-Feb-21 02:32N 21°54' E 113°11'0 0.0
2015-Feb-21 01:32N 21°53' E 113°11'0 0.0
2015-Feb-21 00:32N 21°53' E 113°11'0 0.0
2015-Feb-20 23:32N 21°53' E 113°11'0 0.1
2015-Feb-20 22:32N 21°53' E 113°11'0 0.1
2015-Feb-20 21:26N 21°53' E 113°11'0 0.0
2015-Feb-20 20:26N 21°53' E 113°11'0 0.0
2015-Feb-20 19:14N 21°53' E 113°11'0 0.0
2015-Feb-20 18:32N 21°53' E 113°11'0 0.0
2015-Feb-20 17:32N 21°53' E 113°11'0 0.0
2015-Feb-20 16:32N 21°53' E 113°11'0 0.1
2015-Feb-20 15:32N 21°54' E 113°11'0 0.1
2015-Feb-20 14:32N 21°53' E 113°11'0 0.0
2015-Feb-20 13:32N 21°54' E 113°11'0 0.0
2015-Feb-20 12:32N 21°53' E 113°11'0 0.0
2015-Feb-20 11:32N 21°54' E 113°11'0 0.0
2015-Feb-20 10:32N 21°54' E 113°11'0 0.0
2015-Feb-20 09:32N 21°54' E 113°11'0 0.1
2015-Feb-20 08:32N 21°53' E 113°11'0 0.0
2015-Feb-20 07:32N 21°53' E 113°11'0 0.0
2015-Feb-20 06:32N 21°53' E 113°11'0 0.1
2015-Feb-20 05:32N 21°53' E 113°11'0 0.1
2015-Feb-20 04:32N 21°53' E 113°11'0 0.0
2015-Feb-20 03:14N 21°53' E 113°11'0 0.0
2015-Feb-20 02:32N 21°53' E 113°11'0 0.0
2015-Feb-20 01:33N 21°53' E 113°11'0 0.0
2015-Feb-20 00:33N 21°53' E 113°11'0 0.0
2015-Feb-19 23:33N 21°53' E 113°11'0 0.0
2015-Feb-19 22:33N 21°53' E 113°11'0 0.0
2015-Feb-19 21:33N 21°53' E 113°11'0 0.1
2015-Feb-19 20:31N 21°53' E 113°11'0 0.0
2015-Feb-19 19:33N 21°53' E 113°11'0 0.0
2015-Feb-19 18:33N 21°53' E 113°11'0 0.0
2015-Feb-19 17:33N 21°53' E 113°11'0 0.1
2015-Feb-19 16:31N 21°53' E 113°11'0 0.0
2015-Feb-19 15:33N 21°53' E 113°11'0 0.1
2015-Feb-19 14:33N 21°53' E 113°11'0 0.0
2015-Feb-19 13:33N 21°53' E 113°11'0 0.0
2015-Feb-19 12:33N 21°53' E 113°11'0 0.0
2015-Feb-19 11:33N 21°53' E 113°11'0 0.0
2015-Feb-19 10:33N 21°53' E 113°11'0 0.0
2015-Feb-19 09:33N 21°53' E 113°11'0 0.0
2015-Feb-19 08:33N 21°53' E 113°11'0 0.0
2015-Feb-19 07:33N 21°53' E 113°11'0 0.0
2015-Feb-19 06:33N 21°53' E 113°11'0 0.0
2015-Feb-19 05:33N 21°53' E 113°11'0 0.0
2015-Feb-19 04:33N 21°53' E 113°11'0 0.0
2015-Feb-19 03:33N 21°53' E 113°11'0 0.0
2015-Feb-19 02:33N 21°53' E 113°11'0 0.0
2015-Feb-19 01:33N 21°53' E 113°11'0 0.0
2015-Feb-19 00:33N 21°53' E 113°11'0 0.0
2015-Feb-18 23:33N 21°53' E 113°11'0 0.0
2015-Feb-18 22:31N 21°53' E 113°11'0 0.0
2015-Feb-18 21:33N 21°53' E 113°11'0 0.0
2015-Feb-18 20:33N 21°53' E 113°11'0 0.1
2015-Feb-18 19:33N 21°53' E 113°11'0 0.0
2015-Feb-18 18:33N 21°53' E 113°11'0 0.0
2015-Feb-18 17:33N 21°53' E 113°11'0 0.0
2015-Feb-18 16:33N 21°53' E 113°11'0 0.0
2015-Feb-18 15:33N 21°53' E 113°11'0 0.0
2015-Feb-18 14:33N 21°53' E 113°11'0 0.1
2015-Feb-18 13:33N 21°53' E 113°11'0 0.1
2015-Feb-18 12:33N 21°53' E 113°11'0 0.0
2015-Feb-18 11:33N 21°53' E 113°11'0 0.0
2015-Feb-18 10:33N 21°54' E 113°11'0 0.0
2015-Feb-18 09:33N 21°53' E 113°11'0 0.0
2015-Feb-18 08:33N 21°54' E 113°11'0 0.0
2015-Feb-18 07:32N 21°53' E 113°11'0 0.0
2015-Feb-18 06:33N 21°53' E 113°11'0 0.0
2015-Feb-18 05:33N 21°53' E 113°11'0 0.1
2015-Feb-18 04:33N 21°53' E 113°11'0 0.1
2015-Feb-18 03:33N 21°53' E 113°11'0 0.0
2015-Feb-18 02:33N 21°53' E 113°11'0 0.0
2015-Feb-18 01:33N 21°53' E 113°11'0 0.0
2015-Feb-18 00:33N 21°53' E 113°11'0 0.0
2015-Feb-17 23:33N 21°53' E 113°11'0 0.0
2015-Feb-17 22:33N 21°53' E 113°11'0 0.0
2015-Feb-17 21:33N 21°53' E 113°11'0 0.1
2015-Feb-17 20:33N 21°53' E 113°11'0 0.1
2015-Feb-17 19:33N 21°53' E 113°11'0 0.0
2015-Feb-17 17:33N 21°53' E 113°11'0 0.0
2015-Feb-17 16:33N 21°53' E 113°11'0 0.0
2015-Feb-17 15:33N 21°53' E 113°11'0 0.0
2015-Feb-17 14:33N 21°53' E 113°11'0 0.1
2015-Feb-17 13:33N 21°54' E 113°11'0 0.0
2015-Feb-17 12:33N 21°54' E 113°11'0 0.0
2015-Feb-17 11:33N 21°54' E 113°11'0 0.1
2015-Feb-17 10:33N 21°54' E 113°11'0 0.0
2015-Feb-17 09:33N 21°54' E 113°11'0 0.0
2015-Feb-17 08:33N 21°54' E 113°11'0 0.0
2015-Feb-17 07:33N 21°54' E 113°11'0 0.0
2015-Feb-17 06:33N 21°53' E 113°11'0 0.1
2015-Feb-17 05:33N 21°53' E 113°11'0 0.0
2015-Feb-17 04:33N 21°53' E 113°11'0 0.0
2015-Feb-17 03:33N 21°53' E 113°11'0 0.1
2015-Feb-17 02:33N 21°53' E 113°11'0 0.0
2015-Feb-17 01:33N 21°53' E 113°11'0 0.1
2015-Feb-17 00:32N 21°54' E 113°11'0 0.0
2015-Feb-16 23:33N 21°54' E 113°11'1 1.2
2015-Feb-16 22:33N 21°53' E 113°12'  
Track history (hours):
 
Tides and Currents Weather Stations Pressure Air Temp Water Temp Dewpoint Dewpoint Depression Visibility Wind Speed Wind Dir Waves Ship Positions

Hong Xiang 2

Last reported at 2015-Feb-26 22:25 UTC. Time now 2015-Feb-27 21:09 UTC.
Position N 22°09' E 114°15'.

Length 96 m; draft 5 m.

Type: Ship (hazmat cat A). MMSI: 413413000.

Date/timePositionNaut miles runAvg speedWind from/ knotsBaromVisibWave heightAir tempDewpointWater temp
2015-Feb-26 22:25N 22°09' E 114°15'14110.9
2015-Feb-26 09:31N 23°00' E 116°36'1010.0
2015-Feb-26 08:33N 23°07' E 116°44'9 8.9
2015-Feb-26 07:32N 23°14' E 116°50'10 9.8
2015-Feb-26 06:33N 23°21' E 116°42'10 9.8
2015-Feb-26 05:33N 23°25' E 116°33'5 0.2
2015-Feb-25 05:28N 23°27' E 116°28'6 6.7
2015-Feb-25 04:33N 23°24' E 116°33'7 7.4
2015-Feb-25 03:33N 23°21' E 116°41'8 8.1
2015-Feb-25 02:33N 23°16' E 116°48'8 7.7
2015-Feb-25 01:33N 23°09' E 116°46'136 9.6
2015-Feb-24 11:23N 22°10' E 114°33'12 9.7
2015-Feb-24 10:10N 22°06' E 114°21'61 9.3
2015-Feb-24 03:33N 21°51' E 113°17'5 4.9
2015-Feb-24 02:33N 21°55' E 113°13'0 0.0
2015-Feb-24 01:30N 21°55' E 113°13'0 0.0
2015-Feb-24 00:30N 21°55' E 113°13'0 0.0
2015-Feb-23 23:30N 21°55' E 113°13'0 0.0
2015-Feb-23 22:30N 21°55' E 113°13'0 0.0
2015-Feb-23 21:24N 21°55' E 113°13'0 0.0
2015-Feb-23 20:30N 21°55' E 113°13'0 0.0
2015-Feb-23 19:18N 21°55' E 113°13'0 0.0
2015-Feb-23 18:30N 21°55' E 113°13'0 0.0
2015-Feb-23 17:30N 21°55' E 113°13'0 0.0
2015-Feb-23 16:30N 21°55' E 113°13'0 0.0
2015-Feb-23 15:30N 21°55' E 113°13'0 0.0
2015-Feb-23 14:24N 21°55' E 113°13'0 0.0
2015-Feb-23 13:24N 21°55' E 113°13'0 0.0
2015-Feb-23 12:30N 21°55' E 113°13'0 0.0
2015-Feb-23 11:30N 21°55' E 113°13'0 0.0
2015-Feb-23 10:30N 21°55' E 113°13'0 0.0
2015-Feb-23 09:24N 21°55' E 113°13'0 0.0
2015-Feb-23 08:30N 21°55' E 113°13'0 0.0
2015-Feb-23 07:30N 21°55' E 113°13'0 0.0
2015-Feb-23 06:30N 21°55' E 113°13'2 2.1
2015-Feb-23 05:33N 21°53' E 113°12'1 0.6
2015-Feb-23 04:32N 21°54' E 113°11'0 0.0
2015-Feb-23 03:20N 21°53' E 113°11'0 0.0
2015-Feb-23 02:26N 21°53' E 113°11'0 0.0
2015-Feb-23 01:32N 21°53' E 113°11'0 0.0
2015-Feb-23 00:32N 21°53' E 113°11'0 0.0
2015-Feb-22 23:32N 21°53' E 113°11'0 0.1
2015-Feb-22 22:32N 21°53' E 113°11'0 0.0
2015-Feb-22 21:26N 21°53' E 113°11'0 0.0
2015-Feb-22 20:32N 21°53' E 113°11'0 0.0
2015-Feb-22 19:20N 21°53' E 113°11'0 0.0
2015-Feb-22 17:32N 21°53' E 113°11'0 0.0
2015-Feb-22 16:32N 21°53' E 113°11'0 0.1
2015-Feb-22 15:26N 21°54' E 113°11'0 0.1
2015-Feb-22 14:32N 21°54' E 113°11'0 0.0
2015-Feb-22 13:32N 21°54' E 113°11'0 0.0
2015-Feb-22 12:26N 21°53' E 113°11'0 0.0
2015-Feb-22 11:26N 21°53' E 113°11'0 0.0
2015-Feb-22 10:32N 21°53' E 113°11'0 0.1
2015-Feb-22 09:32N 21°53' E 113°11'0 0.1
2015-Feb-22 08:26N 21°53' E 113°11'0 0.1
2015-Feb-22 07:26N 21°53' E 113°11'0 0.0
2015-Feb-22 06:32N 21°53' E 113°11'0 0.1
2015-Feb-22 05:26N 21°53' E 113°11'0 0.0
2015-Feb-22 04:32N 21°53' E 113°11'0 0.1
2015-Feb-22 03:20N 21°54' E 113°11'0 0.0
2015-Feb-22 02:32N 21°54' E 113°11'0 0.0
2015-Feb-22 01:20N 21°53' E 113°11'0 0.0
2015-Feb-22 00:32N 21°53' E 113°11'0 0.0
2015-Feb-21 23:20N 21°53' E 113°11'0 0.1
2015-Feb-21 22:32N 21°53' E 113°11'0 0.1
2015-Feb-21 21:26N 21°53' E 113°11'0 0.0
2015-Feb-21 20:26N 21°53' E 113°11'0 0.0
2015-Feb-21 19:32N 21°53' E 113°11'0 0.0
2015-Feb-21 18:32N 21°53' E 113°11'0 0.0
2015-Feb-21 17:26N 21°53' E 113°11'0 0.0
2015-Feb-21 16:32N 21°53' E 113°11'0 0.1
2015-Feb-21 15:26N 21°53' E 113°11'0 0.1
2015-Feb-21 14:32N 21°53' E 113°11'0 0.0
2015-Feb-21 13:26N 21°54' E 113°11'0 0.0
2015-Feb-21 12:20N 21°53' E 113°11'0 0.0
2015-Feb-21 11:20N 21°53' E 113°11'0 0.0
2015-Feb-21 10:26N 21°53' E 113°11'0 0.1
2015-Feb-21 09:32N 21°53' E 113°11'0 0.1
2015-Feb-21 08:32N 21°53' E 113°11'0 0.1
2015-Feb-21 07:32N 21°53' E 113°11'0 0.0
2015-Feb-21 06:32N 21°53' E 113°11'0 0.0
2015-Feb-21 05:32N 21°53' E 113°11'0 0.1
2015-Feb-21 04:32N 21°53' E 113°11'0 0.1
2015-Feb-21 03:32N 21°54' E 113°11'0 0.1
2015-Feb-21 02:32N 21°54' E 113°11'0 0.0
2015-Feb-21 01:32N 21°53' E 113°11'0 0.0
2015-Feb-21 00:32N 21°53' E 113°11'0 0.0
2015-Feb-20 23:32N 21°53' E 113°11'0 0.1
2015-Feb-20 22:32N 21°53' E 113°11'0 0.1
2015-Feb-20 21:26N 21°53' E 113°11'0 0.0
2015-Feb-20 20:26N 21°53' E 113°11'0 0.0
2015-Feb-20 19:14N 21°53' E 113°11'0 0.0
2015-Feb-20 18:32N 21°53' E 113°11'0 0.0
2015-Feb-20 17:32N 21°53' E 113°11'0 0.0
2015-Feb-20 16:32N 21°53' E 113°11'0 0.1
2015-Feb-20 15:32N 21°54' E 113°11'0 0.1
2015-Feb-20 14:32N 21°53' E 113°11'0 0.0
2015-Feb-20 13:32N 21°54' E 113°11'0 0.0
2015-Feb-20 12:32N 21°53' E 113°11'0 0.0
2015-Feb-20 11:32N 21°54' E 113°11'0 0.0
2015-Feb-20 10:32N 21°54' E 113°11'0 0.0
2015-Feb-20 09:32N 21°54' E 113°11'0 0.1
2015-Feb-20 08:32N 21°53' E 113°11'0 0.0
2015-Feb-20 07:32N 21°53' E 113°11'0 0.0
2015-Feb-20 06:32N 21°53' E 113°11'0 0.1
2015-Feb-20 05:32N 21°53' E 113°11'0 0.1
2015-Feb-20 04:32N 21°53' E 113°11'0 0.0
2015-Feb-20 03:14N 21°53' E 113°11'0 0.0
2015-Feb-20 02:32N 21°53' E 113°11'0 0.0
2015-Feb-20 01:33N 21°53' E 113°11'0 0.0
2015-Feb-20 00:33N 21°53' E 113°11'0 0.0
2015-Feb-19 23:33N 21°53' E 113°11'0 0.0
2015-Feb-19 22:33N 21°53' E 113°11'0 0.0
2015-Feb-19 21:33N 21°53' E 113°11'0 0.1
2015-Feb-19 20:31N 21°53' E 113°11'0 0.0
2015-Feb-19 19:33N 21°53' E 113°11'0 0.0
2015-Feb-19 18:33N 21°53' E 113°11'0 0.0
2015-Feb-19 17:33N 21°53' E 113°11'0 0.1
2015-Feb-19 16:31N 21°53' E 113°11'0 0.0
2015-Feb-19 15:33N 21°53' E 113°11'0 0.1
2015-Feb-19 14:33N 21°53' E 113°11'0 0.0
2015-Feb-19 13:33N 21°53' E 113°11'0 0.0
2015-Feb-19 12:33N 21°53' E 113°11'0 0.0
2015-Feb-19 11:33N 21°53' E 113°11'0 0.0
2015-Feb-19 10:33N 21°53' E 113°11'0 0.0
2015-Feb-19 09:33N 21°53' E 113°11'0 0.0
2015-Feb-19 08:33N 21°53' E 113°11'0 0.0
2015-Feb-19 07:33N 21°53' E 113°11'0 0.0
2015-Feb-19 06:33N 21°53' E 113°11'0 0.0
2015-Feb-19 05:33N 21°53' E 113°11'0 0.0
2015-Feb-19 04:33N 21°53' E 113°11'0 0.0
2015-Feb-19 03:33N 21°53' E 113°11'0 0.0
2015-Feb-19 02:33N 21°53' E 113°11'0 0.0
2015-Feb-19 01:33N 21°53' E 113°11'0 0.0
2015-Feb-19 00:33N 21°53' E 113°11'0 0.0
2015-Feb-18 23:33N 21°53' E 113°11'0 0.0
2015-Feb-18 22:31N 21°53' E 113°11'0 0.0
2015-Feb-18 21:33N 21°53' E 113°11'0 0.0
2015-Feb-18 20:33N 21°53' E 113°11'0 0.1
2015-Feb-18 19:33N 21°53' E 113°11'0 0.0
2015-Feb-18 18:33N 21°53' E 113°11'0 0.0
2015-Feb-18 17:33N 21°53' E 113°11'0 0.0
2015-Feb-18 16:33N 21°53' E 113°11'0 0.0
2015-Feb-18 15:33N 21°53' E 113°11'0 0.0
2015-Feb-18 14:33N 21°53' E 113°11'0 0.1
2015-Feb-18 13:33N 21°53' E 113°11'0 0.1
2015-Feb-18 12:33N 21°53' E 113°11'0 0.0
2015-Feb-18 11:33N 21°53' E 113°11'0 0.0
2015-Feb-18 10:33N 21°54' E 113°11'0 0.0
2015-Feb-18 09:33N 21°53' E 113°11'0 0.0
2015-Feb-18 08:33N 21°54' E 113°11'0 0.0
2015-Feb-18 07:32N 21°53' E 113°11'0 0.0
2015-Feb-18 06:33N 21°53' E 113°11'0 0.0
2015-Feb-18 05:33N 21°53' E 113°11'0 0.1
2015-Feb-18 04:33N 21°53' E 113°11'0 0.1
2015-Feb-18 03:33N 21°53' E 113°11'0 0.0
2015-Feb-18 02:33N 21°53' E 113°11'0 0.0
2015-Feb-18 01:33N 21°53' E 113°11'0 0.0
2015-Feb-18 00:33N 21°53' E 113°11'0 0.0
2015-Feb-17 23:33N 21°53' E 113°11'0 0.0
2015-Feb-17 22:33N 21°53' E 113°11'0 0.0
2015-Feb-17 21:33N 21°53' E 113°11'0 0.1
2015-Feb-17 20:33N 21°53' E 113°11'0 0.1
2015-Feb-17 19:33N 21°53' E 113°11'0 0.0
2015-Feb-17 17:33N 21°53' E 113°11'0 0.0
2015-Feb-17 16:33N 21°53' E 113°11'0 0.0
2015-Feb-17 15:33N 21°53' E 113°11'0 0.0
2015-Feb-17 14:33N 21°53' E 113°11'0 0.1
2015-Feb-17 13:33N 21°54' E 113°11'0 0.0
2015-Feb-17 12:33N 21°54' E 113°11'0 0.0
2015-Feb-17 11:33N 21°54' E 113°11'0 0.1
2015-Feb-17 10:33N 21°54' E 113°11'0 0.0
2015-Feb-17 09:33N 21°54' E 113°11'0 0.0
2015-Feb-17 08:33N 21°54' E 113°11'0 0.0
2015-Feb-17 07:33N 21°54' E 113°11'0 0.0
2015-Feb-17 06:33N 21°53' E 113°11'0 0.1
2015-Feb-17 05:33N 21°53' E 113°11'0 0.0
2015-Feb-17 04:33N 21°53' E 113°11'0 0.0
2015-Feb-17 03:33N 21°53' E 113°11'0 0.1
2015-Feb-17 02:33N 21°53' E 113°11'0 0.0
2015-Feb-17 01:33N 21°53' E 113°11'0 0.1
2015-Feb-17 00:32N 21°54' E 113°11'0 0.0
2015-Feb-16 23:33N 21°54' E 113°11'1 1.2
2015-Feb-16 22:33N 21°53' E 113°12'  

Dump ship's entire track history